HHN weather

Frankfurt-Hahn Airport
Frankfurt am Main, Rhineland-Palatinate, Germany

Public forecast

Using degrees Celsius for public forecast. Weather courtesy of forecast.io.

METAR (pilot weather report)

Retrieved 2019/03/21 01:20 UTC (26 minutes ago):

EDFH 210120Z 10002KT CAVOK 04/M01 Q1033

TAF (pilot weather forecast)

Forecast is more than 12 hours old.

Retrieved 2019/03/20 00:27 UTC (1 day ago):

TAF EDFH 202300Z 2100/2124 14005KT CAVOK BECMG 2109/2112 08007KT